Time;durP1;ratioP1;P1;durP2;ratioP2;P2;SDS_P1;SDS_P2;PMS_P1;PMS_P2;Temp;Humidity;BMP_temperature;BMP_pressure;BME280_temperature;BME280_humidity;BME280_pressure;Samples;Min_cycle;Max_cycle;Signal;HPM_P1;HPM_P2
2023/07/15 00:00:13;;;;;;;2.75;2.55;;;18.70;99.90;;;;;;4180054;28;20087;-66
2023/07/15 00:02:15;;;;;;;7.47;2.58;;;18.70;99.90;;;;;;4177649;28;20036;-63
2023/07/15 00:04:16;;;;;;;2.78;2.13;;;18.60;99.90;;;;;;4145002;28;20564;-64
2023/07/15 00:06:18;;;;;;;2.78;2.38;;;18.60;99.90;;;;;;4178390;28;20098;-64
2023/07/15 00:08:19;;;;;;;3.42;2.13;;;18.60;99.90;;;;;;4179405;28;20041;-64
2023/07/15 00:10:21;;;;;;;6.57;2.70;;;18.50;99.90;;;;;;4178570;28;20041;-63
2023/07/15 00:12:22;;;;;;;3.13;2.25;;;18.50;99.90;;;;;;4179291;28;20029;-69
2023/07/15 00:14:25;;;;;;;5.30;2.30;;;18.40;99.90;;;;;;4178511;28;20106;-70
2023/07/15 00:16:29;;;;;;;4.00;2.28;;;18.40;99.90;;;;;;4179683;28;20017;-62
2023/07/15 00:18:30;;;;;;;3.65;2.10;;;18.40;99.90;;;;;;4178153;28;20059;-66
2023/07/15 00:20:32;;;;;;;4.13;2.50;;;18.40;99.90;;;;;;4179448;28;20013;-62
2023/07/15 00:22:35;;;;;;;2.42;2.22;;;18.30;99.90;;;;;;4178596;28;20040;-62
2023/07/15 00:24:36;;;;;;;3.42;2.25;;;18.30;99.90;;;;;;4177824;28;20041;-61
2023/07/15 00:26:37;;;;;;;4.80;2.30;;;18.30;99.90;;;;;;4178027;28;20387;-65
2023/07/15 00:28:39;;;;;;;2.95;2.03;;;18.30;99.90;;;;;;4178625;28;20432;-61
2023/07/15 00:30:40;;;;;;;3.80;2.33;;;18.30;99.90;;;;;;4179269;28;20044;-61
2023/07/15 00:32:46;;;;;;;4.15;2.20;;;18.30;99.90;;;;;;4177818;28;20033;-60
2023/07/15 00:34:47;;;;;;;4.40;2.08;;;18.20;99.90;;;;;;4178599;28;20048;-70
2023/07/15 00:36:48;;;;;;;5.10;1.90;;;18.20;99.90;;;;;;4177523;28;20417;-61
2023/07/15 00:38:50;;;;;;;5.03;2.30;;;18.20;99.90;;;;;;4179256;28;20116;-67
2023/07/15 00:40:51;;;;;;;3.28;2.40;;;18.20;99.90;;;;;;4177121;28;20037;-59
2023/07/15 00:43:30;;;;;;;3.97;2.17;;;18.30;99.90;;;;;;4179334;28;20017;-60
2023/07/15 00:45:31;;;;;;;6.95;2.75;;;18.20;99.90;;;;;;4177253;28;20569;-60
2023/07/15 00:47:45;;;;;;;3.72;1.95;;;18.20;99.90;;;;;;4178136;28;20041;-61
2023/07/15 00:49:48;;;;;;;3.72;2.00;;;18.30;99.90;;;;;;4177264;28;20029;-60
2023/07/15 00:52:00;;;;;;;4.18;2.63;;;18.20;99.90;;;;;;4162532;28;20021;-60
2023/07/15 00:54:06;;;;;;;3.08;2.53;;;18.20;99.90;;;;;;4161137;28;20583;-60
2023/07/15 00:56:07;;;;;;;2.78;1.92;;;18.10;99.90;;;;;;4162968;28;20134;-60
2023/07/15 00:58:08;;;;;;;5.53;3.08;;;18.10;99.90;;;;;;4176712;28;20040;-60
2023/07/15 01:00:13;;;;;;;2.40;2.20;;;18.10;99.90;;;;;;4177497;28;20060;-61
2023/07/15 01:02:15;;;;;;;6.07;3.15;;;18.10;99.90;;;;;;4177603;28;20708;-60
2023/07/15 01:04:16;;;;;;;3.53;2.70;;;18.10;99.90;;;;;;4160394;28;20086;-60
2023/07/15 01:06:17;;;;;;;2.80;2.15;;;18.20;99.90;;;;;;4177463;28;20046;-60
2023/07/15 01:08:19;;;;;;;3.65;2.40;;;18.10;99.90;;;;;;4178738;28;20029;-61
2023/07/15 01:10:20;;;;;;;3.60;2.15;;;18.10;99.90;;;;;;4177601;28;20469;-60
2023/07/15 01:12:21;;;;;;;4.18;2.42;;;18.10;99.90;;;;;;4178465;28;20079;-61
2023/07/15 01:14:22;;;;;;;2.53;2.08;;;18.10;99.90;;;;;;4177359;28;20017;-66
2023/07/15 01:16:24;;;;;;;4.57;2.40;;;18.10;99.90;;;;;;4178186;28;20412;-66
2023/07/15 01:18:25;;;;;;;3.28;2.58;;;18.10;99.90;;;;;;4177823;28;20386;-62
2023/07/15 01:20:26;;;;;;;4.15;2.30;;;18.10;99.90;;;;;;4177585;28;20037;-64
2023/07/15 01:22:27;;;;;;;5.72;2.42;;;18.10;99.90;;;;;;4178297;28;20521;-61
2023/07/15 01:24:28;;;;;;;2.15;1.88;;;18.10;99.90;;;;;;4176271;28;20045;-61
2023/07/15 01:26:31;;;;;;;5.20;2.42;;;18.10;99.90;;;;;;4177596;28;20053;-62
2023/07/15 01:28:32;;;;;;;5.07;2.33;;;18.10;99.90;;;;;;4177043;28;20025;-60
2023/07/15 01:30:33;;;;;;;3.92;2.90;;;18.10;99.90;;;;;;4178237;28;20098;-62
2023/07/15 01:32:35;;;;;;;3.20;2.13;;;18.10;99.90;;;;;;4177026;28;20036;-62
2023/07/15 01:34:36;;;;;;;3.60;2.00;;;18.10;99.90;;;;;;4176884;28;20114;-62
2023/07/15 01:36:37;;;;;;;2.25;1.90;;;18.10;99.90;;;;;;4176688;28;20036;-66
2023/07/15 01:38:40;;;;;;;3.15;2.33;;;18.10;99.90;;;;;;4177689;28;20094;-63
2023/07/15 01:40:42;;;;;;;4.18;1.98;;;18.10;99.90;;;;;;4177099;28;20025;-62
2023/07/15 01:42:43;;;;;;;5.60;2.20;;;18.00;99.90;;;;;;4178251;28;20037;-68
2023/07/15 01:44:44;;;;;;;3.00;2.15;;;18.00;99.90;;;;;;4176649;28;20724;-62
2023/07/15 01:46:46;;;;;;;5.32;2.13;;;18.00;99.90;;;;;;4177294;28;20037;-62
2023/07/15 01:48:48;;;;;;;4.00;2.47;;;17.90;99.90;;;;;;4177372;28;20031;-61
2023/07/15 01:50:49;;;;;;;5.18;2.28;;;17.90;99.90;;;;;;4177174;28;20071;-63
2023/07/15 01:52:50;;;;;;;2.33;2.13;;;17.80;99.90;;;;;;4177752;28;20067;-65
2023/07/15 01:54:51;;;;;;;2.25;2.03;;;17.80;99.90;;;;;;4176424;28;20041;-63
2023/07/15 01:56:52;;;;;;;4.05;2.50;;;17.80;99.90;;;;;;4177730;28;20028;-62
2023/07/15 01:58:53;;;;;;;2.55;2.20;;;17.80;99.90;;;;;;4176883;28;20028;-63
2023/07/15 02:00:54;;;;;;;4.00;2.25;;;17.80;99.90;;;;;;4176865;28;20082;-64
2023/07/15 02:02:55;;;;;;;3.30;1.80;;;17.80;99.90;;;;;;4175319;28;20092;-62
2023/07/15 02:04:57;;;;;;;4.60;1.95;;;17.90;99.90;;;;;;4177273;28;20049;-62
2023/07/15 02:06:58;;;;;;;4.60;2.13;;;17.90;99.90;;;;;;4176763;28;20017;-62
2023/07/15 02:08:59;;;;;;;2.47;2.28;;;17.90;99.90;;;;;;4177445;28;20037;-62
2023/07/15 02:11:00;;;;;;;2.22;2.03;;;17.90;99.90;;;;;;4176764;28;20017;-62
2023/07/15 02:13:01;;;;;;;3.90;2.30;;;17.90;99.90;;;;;;4177335;28;20098;-61
2023/07/15 02:15:04;;;;;;;2.03;1.90;;;17.90;99.90;;;;;;4176894;28;20110;-62
2023/07/15 02:17:06;;;;;;;3.22;2.75;;;17.90;99.90;;;;;;4176281;28;20154;-64
2023/07/15 02:19:07;;;;;;;2.70;2.38;;;17.90;99.90;;;;;;4177045;28;20033;-69
2023/07/15 02:21:09;;;;;;;2.58;2.00;;;17.90;99.90;;;;;;4177004;28;20063;-62
2023/07/15 02:23:11;;;;;;;4.57;2.20;;;17.90;99.90;;;;;;4177395;28;20158;-67
2023/07/15 02:25:12;;;;;;;7.20;2.30;;;17.90;99.90;;;;;;4175907;28;20045;-67
2023/07/15 02:27:13;;;;;;;2.35;2.15;;;17.80;99.90;;;;;;4177633;28;20067;-69
2023/07/15 02:29:14;;;;;;;3.70;2.55;;;17.80;99.90;;;;;;4176151;28;20025;-65
2023/07/15 02:31:15;;;;;;;2.28;2.08;;;17.80;99.90;;;;;;4177571;28;20463;-67
2023/07/15 02:33:16;;;;;;;3.00;2.65;;;17.80;99.90;;;;;;4175780;28;20400;-62
2023/07/15 02:35:18;;;;;;;4.68;2.30;;;17.80;99.90;;;;;;4176752;28;20029;-69
2023/07/15 02:37:19;;;;;;;4.75;2.40;;;17.70;99.90;;;;;;4176196;28;20029;-63
2023/07/15 02:39:20;;;;;;;2.38;2.13;;;17.70;99.90;;;;;;4177533;28;20029;-69
2023/07/15 02:41:21;;;;;;;3.65;2.42;;;17.70;99.90;;;;;;4175635;28;20383;-65
2023/07/15 02:43:23;;;;;;;2.20;1.92;;;17.60;99.90;;;;;;4176768;28;20126;-68
2023/07/15 02:45:24;;;;;;;2.75;2.33;;;17.60;99.90;;;;;;4175328;28;20049;-65
2023/07/15 02:47:25;;;;;;;20.20;3.72;;;17.60;99.90;;;;;;4177099;28;20159;-63
2023/07/15 02:49:26;;;;;;;2.42;2.20;;;17.50;99.90;;;;;;4176729;28;20021;-60
2023/07/15 02:51:28;;;;;;;4.75;2.38;;;17.50;99.90;;;;;;4176257;28;20477;-60
2023/07/15 02:53:31;;;;;;;3.35;2.50;;;17.50;99.90;;;;;;4176520;28;20416;-61
2023/07/15 02:55:32;;;;;;;5.35;2.70;;;17.50;99.90;;;;;;4176436;28;20025;-61
2023/07/15 02:57:33;;;;;;;4.57;3.05;;;17.50;99.90;;;;;;4177736;28;20143;-61
2023/07/15 02:59:34;;;;;;;4.85;3.08;;;17.60;99.90;;;;;;4179251;28;20083;-60
2023/07/15 03:01:36;;;;;;;4.72;2.80;;;17.70;99.90;;;;;;4180940;28;20075;-61
2023/07/15 03:03:37;;;;;;;4.10;3.08;;;17.80;99.90;;;;;;4177853;28;20689;-63
2023/07/15 03:05:39;;;;;;;7.10;2.70;;;18.00;99.90;;;;;;4179944;28;20558;-63
2023/07/15 03:07:44;;;;;;;6.55;3.25;;;18.20;99.90;;;;;;4179623;28;20025;-62
2023/07/15 03:09:46;;;;;;;6.00;3.75;;;18.40;99.90;;;;;;4179511;28;20041;-66
2023/07/15 03:11:47;;;;;;;4.03;2.80;;;18.50;99.90;;;;;;4179499;28;20711;-60
2023/07/15 03:13:48;;;;;;;6.50;2.80;;;18.70;99.90;;;;;;4179779;28;20051;-61
2023/07/15 03:15:49;;;;;;;3.80;2.95;;;18.70;99.90;;;;;;4179461;28;20447;-63
2023/07/15 03:17:50;;;;;;;7.05;4.40;;;18.70;99.90;;;;;;4180019;28;20033;-62
2023/07/15 03:19:52;;;;;;;8.20;4.45;;;18.70;99.90;;;;;;4178753;28;20404;-66
2023/07/15 03:21:53;;;;;;;13.93;4.55;;;18.80;99.90;;;;;;4179944;28;20098;-61
2023/07/15 03:23:54;;;;;;;6.88;4.03;;;18.80;99.90;;;;;;4179484;28;20037;-63
2023/07/15 03:25:56;;;;;;;6.28;4.43;;;18.90;99.90;;;;;;4179018;28;20032;-62
2023/07/15 03:27:58;;;;;;;9.75;4.28;;;19.00;99.90;;;;;;4179538;28;20456;-62
2023/07/15 03:29:59;;;;;;;7.35;4.05;;;19.10;99.90;;;;;;4179158;28;20079;-63
2023/07/15 03:32:00;;;;;;;9.77;4.82;;;19.10;99.90;;;;;;4180482;28;20075;-64
2023/07/15 03:34:02;;;;;;;9.15;4.13;;;19.20;99.90;;;;;;4178662;28;20533;-61
2023/07/15 03:36:03;;;;;;;6.45;4.05;;;19.40;99.90;;;;;;4179006;28;20041;-63
2023/07/15 03:38:05;;;;;;;15.07;5.38;;;19.60;99.90;;;;;;4178997;28;20547;-67
2023/07/15 03:40:08;;;;;;;12.88;4.90;;;19.70;99.90;;;;;;4180068;28;20029;-61
2023/07/15 03:42:09;;;;;;;14.75;4.68;;;19.60;99.90;;;;;;4179074;28;20151;-65
2023/07/15 03:44:10;;;;;;;9.93;3.92;;;19.50;99.90;;;;;;4162036;28;20053;-61
2023/07/15 03:46:12;;;;;;;9.48;4.30;;;19.40;99.90;;;;;;4178778;28;20049;-64
2023/07/15 03:48:13;;;;;;;5.25;3.13;;;19.50;99.90;;;;;;4179937;28;20408;-61
2023/07/15 03:50:15;;;;;;;11.07;4.47;;;19.70;99.90;;;;;;4178394;28;20091;-64
2023/07/15 03:52:16;;;;;;;6.88;3.15;;;19.90;99.90;;;;;;4179608;28;20051;-62
2023/07/15 03:54:17;;;;;;;5.68;3.55;;;19.80;99.90;;;;;;4179092;28;20064;-62
2023/07/15 03:56:18;;;;;;;7.03;3.63;;;19.80;99.90;;;;;;4178669;28;20315;-64
2023/07/15 03:58:19;;;;;;;6.40;3.80;;;19.90;99.90;;;;;;4178556;28;20090;-65
2023/07/15 04:00:21;;;;;;;7.57;4.15;;;20.20;99.90;;;;;;4178695;28;20032;-68
2023/07/15 04:02:22;;;;;;;13.85;4.57;;;20.30;99.90;;;;;;4179793;28;20028;-65
2023/07/15 04:04:24;;;;;;;11.02;4.65;;;20.60;99.90;;;;;;4178432;28;20032;-61
2023/07/15 04:06:25;;;;;;;7.93;4.75;;;21.20;99.90;;;;;;4179239;28;20082;-64
2023/07/15 04:08:26;;;;;;;10.50;5.00;;;21.50;99.90;;;;;;4177287;28;20041;-65
2023/07/15 04:10:27;;;;;;;8.05;4.93;;;21.50;99.90;;;;;;4179539;28;20037;-67
2023/07/15 04:12:28;;;;;;;7.60;4.85;;;21.70;99.90;;;;;;4160151;28;20450;-67
2023/07/15 04:14:29;;;;;;;9.88;4.68;;;21.90;99.90;;;;;;4178797;28;20099;-65
2023/07/15 04:16:30;;;;;;;8.75;4.80;;;22.00;99.90;;;;;;4178176;28;20075;-65
2023/07/15 04:18:31;;;;;;;5.22;4.18;;;21.80;99.90;;;;;;4178803;28;20308;-67
2023/07/15 04:20:33;;;;;;;6.18;4.53;;;21.70;99.90;;;;;;4178267;28;20025;-66
2023/07/15 04:22:37;;;;;;;8.95;3.92;;;22.00;99.90;;;;;;4178721;28;20036;-70
2023/07/15 04:24:38;;;;;;;9.88;4.43;;;22.30;99.90;;;;;;4177888;28;20126;-68
2023/07/15 04:26:39;;;;;;;6.53;3.58;;;22.50;99.90;;;;;;4177586;28;20429;-69
2023/07/15 04:28:40;;;;;;;6.20;4.40;;;22.80;99.90;;;;;;4178338;28;20071;-62
2023/07/15 04:30:41;;;;;;;8.02;4.25;;;23.00;99.90;;;;;;4177903;28;20053;-63
2023/07/15 04:32:43;;;;;;;6.75;4.15;;;23.30;99.90;;;;;;4178099;28;20056;-62
2023/07/15 04:34:49;;;;;;;5.47;4.50;;;23.50;99.90;;;;;;4175622;28;20075;-61
2023/07/15 04:36:50;;;;;;;7.53;5.35;;;23.70;99.90;;;;;;4178033;28;20045;-68
2023/07/15 04:38:52;;;;;;;8.90;4.75;;;23.70;99.90;;;;;;4175350;28;20405;-62
2023/07/15 04:40:53;;;;;;;10.65;6.07;;;24.00;99.90;;;;;;4178886;28;20118;-63
2023/07/15 04:42:54;;;;;;;6.15;4.65;;;24.60;99.90;;;;;;4177655;28;20428;-61
2023/07/15 04:44:55;;;;;;;8.60;6.82;;;25.10;99.90;;;;;;4178534;28;20098;-61
2023/07/15 04:46:56;;;;;;;5.15;4.32;;;25.20;99.90;;;;;;4177576;28;20045;-64
2023/07/15 04:48:57;;;;;;;9.82;4.72;;;24.80;99.90;;;;;;4178591;28;20036;-62
2023/07/15 04:50:59;;;;;;;6.97;4.40;;;24.70;99.90;;;;;;4176512;28;20040;-60
2023/07/15 04:53:00;;;;;;;5.60;4.20;;;24.70;99.90;;;;;;4177712;28;20067;-61
2023/07/15 04:55:02;;;;;;;7.97;5.05;;;24.80;99.90;;;;;;4177141;28;20047;-61
2023/07/15 04:57:04;;;;;;;7.25;5.03;;;25.00;99.90;;;;;;4172506;28;20488;-62
2023/07/15 04:59:05;;;;;;;8.98;4.78;;;24.90;99.90;;;;;;4161456;28;20527;-62
2023/07/15 05:01:06;;;;;;;8.73;5.05;;;24.90;99.90;;;;;;4161202;28;20493;-63
2023/07/15 05:03:07;;;;;;;6.53;4.15;;;25.20;99.90;;;;;;4161616;28;20087;-63
2023/07/15 05:05:10;;;;;;;16.75;5.13;;;25.50;99.90;;;;;;4160426;28;20045;-61
2023/07/15 05:07:11;;;;;;;5.93;3.78;;;26.00;99.90;;;;;;4161848;28;20124;-61
2023/07/15 05:09:12;;;;;;;6.78;4.32;;;26.70;99.90;;;;;;4159985;28;20033;-62
2023/07/15 05:11:15;;;;;;;4.82;4.10;;;26.90;99.90;;;;;;4161876;28;20029;-61
2023/07/15 05:13:17;;;;;;;4.93;4.28;;;26.80;99.90;;;;;;4165200;28;20055;-60
2023/07/15 05:15:18;;;;;;;5.28;4.00;;;26.70;99.90;;;;;;4178306;28;20440;-61
2023/07/15 05:17:19;;;;;;;8.40;4.07;;;26.60;99.90;;;;;;4177054;28;20033;-62
2023/07/15 05:19:21;;;;;;;8.73;4.57;;;27.30;99.90;;;;;;4177887;28;20033;-61
2023/07/15 05:21:22;;;;;;;6.43;3.78;;;27.40;99.90;;;;;;4175811;28;20102;-61
2023/07/15 05:23:24;;;;;;;7.55;5.07;;;26.50;99.90;;;;;;4177972;28;20036;-62
2023/07/15 05:25:26;;;;;;;7.18;3.97;;;26.10;99.90;;;;;;4176484;28;20402;-62
2023/07/15 05:27:27;;;;;;;5.45;3.45;;;26.20;99.90;;;;;;4177399;28;20033;-62
2023/07/15 05:29:28;;;;;;;14.18;5.00;;;26.30;99.90;;;;;;4177040;28;20087;-61
2023/07/15 05:31:30;;;;;;;4.70;3.92;;;26.30;99.90;;;;;;4176783;28;20458;-61
2023/07/15 05:33:31;;;;;;;4.45;3.28;;;25.80;99.90;;;;;;4177102;28;20107;-61
2023/07/15 05:35:32;;;;;;;7.70;3.75;;;25.50;99.90;;;;;;4176430;28;20099;-61
2023/07/15 05:37:33;;;;;;;4.43;3.28;;;25.50;99.90;;;;;;4177303;28;20024;-62
2023/07/15 05:39:34;;;;;;;4.20;2.95;;;26.10;99.90;;;;;;4176685;28;20033;-61
2023/07/15 05:41:35;;;;;;;5.60;3.25;;;26.20;99.90;;;;;;4177861;28;20032;-62
2023/07/15 05:43:37;;;;;;;3.80;3.22;;;25.90;99.90;;;;;;4175991;28;20086;-64
2023/07/15 05:45:38;;;;;;;5.47;3.00;;;26.10;99.90;;;;;;4177341;28;20327;-61
2023/07/15 05:47:39;;;;;;;5.95;3.00;;;26.40;99.90;;;;;;4176664;28;20374;-61
2023/07/15 05:49:41;;;;;;;5.75;3.20;;;26.20;99.90;;;;;;4176969;28;20091;-61
2023/07/15 05:51:42;;;;;;;7.60;2.80;;;25.60;99.90;;;;;;4175843;28;20099;-62
2023/07/15 05:53:43;;;;;;;6.85;3.13;;;25.70;99.90;;;;;;4170823;28;20041;-61
2023/07/15 05:55:44;;;;;;;6.15;3.08;;;25.80;99.90;;;;;;4157591;28;20041;-62
2023/07/15 05:57:45;;;;;;;4.40;2.40;;;26.10;99.90;;;;;;4176534;28;20083;-62
2023/07/15 05:59:46;;;;;;;2.92;2.60;;;26.10;99.90;;;;;;4166047;28;20033;-62
2023/07/15 06:01:48;;;;;;;4.13;2.97;;;26.10;99.90;;;;;;4159778;28;20050;-63
2023/07/15 06:03:49;;;;;;;2.45;2.25;;;26.20;99.90;;;;;;4160465;28;20021;-62
2023/07/15 06:05:50;;;;;;;4.10;2.85;;;25.90;99.90;;;;;;4159191;28;20053;-64
2023/07/15 06:07:51;;;;;;;5.20;2.53;;;25.70;99.90;;;;;;4160218;28;20481;-61
2023/07/15 06:09:52;;;;;;;3.40;2.35;;;25.90;99.90;;;;;;4161789;28;20041;-62
2023/07/15 06:11:54;;;;;;;3.33;2.60;;;26.00;99.90;;;;;;4176049;28;20102;-64
2023/07/15 06:13:55;;;;;;;3.05;2.60;;;26.00;99.90;;;;;;4176043;28;20132;-60
2023/07/15 06:15:56;;;;;;;5.15;2.42;;;26.10;99.90;;;;;;4158938;28;20041;-62
2023/07/15 06:17:59;;;;;;;3.80;2.97;;;25.90;99.90;;;;;;4175749;28;20041;-62
2023/07/15 06:20:00;;;;;;;5.00;2.90;;;25.70;99.90;;;;;;4177725;28;20087;-63
2023/07/15 06:22:01;;;;;;;3.08;2.60;;;25.90;99.90;;;;;;4176486;28;20025;-64
2023/07/15 06:24:03;;;;;;;5.30;3.72;;;25.20;99.90;;;;;;4177225;28;20178;-62
2023/07/15 06:26:04;;;;;;;4.78;2.22;;;25.30;99.90;;;;;;4175895;28;20079;-62
2023/07/15 06:28:06;;;;;;;5.20;3.28;;;25.20;99.90;;;;;;4176916;28;20481;-65
2023/07/15 06:30:07;;;;;;;4.80;2.85;;;25.30;99.90;;;;;;4175073;28;20083;-62
2023/07/15 06:32:09;;;;;;;5.43;3.22;;;25.50;99.90;;;;;;4176977;28;20394;-64
2023/07/15 06:34:10;;;;;;;6.38;2.75;;;25.40;99.90;;;;;;4176172;28;20067;-62
2023/07/15 06:36:11;;;;;;;4.72;2.80;;;25.30;99.90;;;;;;4176089;28;20094;-63
2023/07/15 06:38:12;;;;;;;2.88;2.58;;;25.30;99.90;;;;;;4177150;28;20080;-62
2023/07/15 06:40:18;;;;;;;4.03;2.42;;;25.30;99.90;;;;;;4176357;28;20083;-64
2023/07/15 06:42:19;;;;;;;3.67;2.75;;;25.40;99.90;;;;;;4176250;28;20041;-65
2023/07/15 06:44:20;;;;;;;8.25;2.92;;;25.50;99.90;;;;;;4175323;28;20485;-67
2023/07/15 06:46:24;;;;;;;3.83;2.78;;;25.30;99.90;;;;;;4177176;28;20041;-64
2023/07/15 06:48:25;;;;;;;4.07;2.40;;;25.20;99.90;;;;;;4175771;28;20078;-62
2023/07/15 06:50:28;;;;;;;4.97;2.40;;;25.40;99.90;;;;;;4176859;28;20021;-64
2023/07/15 06:52:29;;;;;;;4.82;3.17;;;25.40;99.90;;;;;;4174973;28;20976;-62
2023/07/15 06:54:31;;;;;;;3.25;2.83;;;25.20;99.90;;;;;;4176707;28;20530;-66
2023/07/15 06:56:33;;;;;;;3.65;2.15;;;25.00;99.90;;;;;;4174914;28;20045;-62
2023/07/15 06:58:34;;;;;;;3.58;2.50;;;25.10;99.90;;;;;;4177135;28;20041;-65
2023/07/15 07:00:35;;;;;;;6.63;2.72;;;25.10;99.90;;;;;;4174587;28;20075;-63
2023/07/15 07:02:36;;;;;;;3.92;2.70;;;25.40;99.90;;;;;;4176075;28;20049;-68
2023/07/15 07:04:37;;;;;;;7.10;3.28;;;25.70;99.90;;;;;;4176410;28;20530;-63
2023/07/15 07:06:39;;;;;;;3.55;2.67;;;25.40;99.90;;;;;;4176107;28;20477;-63
2023/07/15 07:08:41;;;;;;;2.90;2.70;;;25.20;99.90;;;;;;4176111;28;20037;-60
2023/07/15 07:10:42;;;;;;;6.13;2.85;;;25.10;99.90;;;;;;4176145;28;20021;-65
2023/07/15 07:12:43;;;;;;;4.70;2.65;;;25.30;99.90;;;;;;4158273;28;20112;-66
2023/07/15 07:14:44;;;;;;;3.67;2.70;;;25.30;99.90;;;;;;4174241;28;20045;-62
2023/07/15 07:16:46;;;;;;;4.07;3.15;;;25.30;99.90;;;;;;4175782;28;20371;-63
2023/07/15 07:18:47;;;;;;;6.03;2.88;;;25.30;99.90;;;;;;4175861;28;20032;-62
2023/07/15 07:20:48;;;;;;;7.32;3.00;;;25.50;99.90;;;;;;4176730;28;20026;-63
2023/07/15 07:22:49;;;;;;;4.30;2.78;;;25.60;99.90;;;;;;4175802;28;20033;-64
2023/07/15 07:24:52;;;;;;;3.72;2.80;;;26.00;99.90;;;;;;4175911;28;20087;-62
2023/07/15 07:26:53;;;;;;;8.00;2.63;;;26.00;99.90;;;;;;4175140;28;20486;-63
2023/07/15 07:28:54;;;;;;;3.90;2.75;;;25.90;99.90;;;;;;4176763;28;20025;-65
2023/07/15 07:30:55;;;;;;;3.40;3.10;;;25.90;99.90;;;;;;4174625;28;20024;-63
2023/07/15 07:32:57;;;;;;;2.20;2.05;;;26.00;99.90;;;;;;4175966;28;20041;-65
2023/07/15 07:34:58;;;;;;;3.25;2.88;;;25.90;99.90;;;;;;4176084;28;20130;-62
2023/07/15 07:36:59;;;;;;;4.10;2.75;;;26.00;99.90;;;;;;4176195;28;20110;-63
2023/07/15 07:39:00;;;;;;;4.97;2.75;;;26.00;99.90;;;;;;4176405;28;20037;-67
2023/07/15 07:41:11;;;;;;;3.20;2.70;;;25.90;99.90;;;;;;4175850;28;20558;-64
2023/07/15 07:43:12;;;;;;;2.95;2.33;;;25.90;99.90;;;;;;4175894;28;20037;-65
2023/07/15 07:45:17;;;;;;;3.70;2.72;;;25.90;99.90;;;;;;4178713;28;20424;-61
2023/07/15 07:47:18;;;;;;;4.60;2.65;;;26.00;99.90;;;;;;4178786;28;20090;-62
2023/07/15 07:49:19;;;;;;;4.32;2.47;;;26.20;99.90;;;;;;4178459;28;20024;-63
2023/07/15 07:51:20;;;;;;;3.45;2.63;;;26.00;99.90;;;;;;4179688;28;20558;-62
2023/07/15 07:53:23;;;;;;;6.65;2.65;;;26.00;99.90;;;;;;4177483;28;20041;-65
2023/07/15 07:55:24;;;;;;;2.30;2.10;;;26.00;99.90;;;;;;4179770;28;20401;-66
2023/07/15 07:57:25;;;;;;;4.45;2.25;;;26.00;99.90;;;;;;4178256;28;20031;-62
2023/07/15 07:59:26;;;;;;;3.70;2.42;;;25.80;99.90;;;;;;4161174;28;20079;-63
2023/07/15 08:01:31;;;;;;;4.20;2.28;;;26.00;99.90;;;;;;4177950;28;20037;-65
2023/07/15 08:03:32;;;;;;;1.88;1.77;;;26.10;99.90;;;;;;4179039;28;20477;-61
2023/07/15 08:05:33;;;;;;;3.30;2.40;;;26.20;99.90;;;;;;4177579;28;20094;-63
2023/07/15 08:07:35;;;;;;;3.08;2.13;;;26.10;99.90;;;;;;4178310;28;20462;-69
2023/07/15 08:09:36;;;;;;;4.38;1.80;;;26.30;99.90;;;;;;4176488;28;20098;-63
2023/07/15 08:11:38;;;;;;;2.13;1.92;;;26.80;99.90;;;;;;4179209;28;20041;-63
2023/07/15 08:13:39;;;;;;;4.28;2.20;;;27.40;99.90;;;;;;4178837;28;20147;-62
2023/07/15 08:15:40;;;;;;;4.07;1.98;;;27.80;99.90;;;;;;4178169;28;20444;-62
2023/07/15 08:17:41;;;;;;;4.05;1.70;;;28.00;99.90;;;;;;4178939;28;20547;-63
2023/07/15 08:19:43;;;;;;;3.50;2.13;;;27.90;99.90;;;;;;4177456;28;20853;-61
2023/07/15 08:21:44;;;;;;;4.20;1.55;;;27.70;99.90;;;;;;4179253;28;20036;-61
2023/07/15 08:23:45;;;;;;;3.22;1.63;;;27.60;99.90;;;;;;4178119;28;20087;-62
2023/07/15 08:25:46;;;;;;;2.10;1.85;;;27.60;99.90;;;;;;4179093;28;20048;-61
2023/07/15 08:27:47;;;;;;;1.83;1.73;;;27.50;99.90;;;;;;4178155;28;20427;-62
2023/07/15 08:29:49;;;;;;;1.83;1.60;;;27.50;99.90;;;;;;4178985;28;20033;-63
2023/07/15 08:31:50;;;;;;;2.45;1.58;;;27.50;99.90;;;;;;4177823;28;20039;-62
2023/07/15 08:33:51;;;;;;;1.73;1.50;;;27.70;99.90;;;;;;4178970;28;20079;-62
2023/07/15 08:35:52;;;;;;;2.97;1.48;;;27.50;99.90;;;;;;4177123;28;20040;-62
2023/07/15 08:37:53;;;;;;;3.10;1.60;;;27.30;99.90;;;;;;4178796;28;20029;-63
2023/07/15 08:39:54;;;;;;;2.42;1.35;;;27.40;99.90;;;;;;4177329;28;20029;-63
2023/07/15 08:41:57;;;;;;;1.85;1.42;;;27.70;99.90;;;;;;4177266;28;20098;-66
2023/07/15 08:43:58;;;;;;;1.80;1.40;;;27.90;98.90;;;;;;4178294;28;20102;-62
2023/07/15 08:46:01;;;;;;;1.70;1.60;;;27.80;98.60;;;;;;4177120;28;20102;-62
2023/07/15 08:48:03;;;;;;;1.52;1.40;;;27.60;98.60;;;;;;4178461;28;20030;-61
2023/07/15 08:50:05;;;;;;;2.80;1.58;;;27.40;98.40;;;;;;4177745;28;20066;-65
2023/07/15 08:52:07;;;;;;;1.80;1.40;;;27.30;98.40;;;;;;4178695;28;20102;-62
2023/07/15 08:54:08;;;;;;;1.50;1.40;;;27.30;98.40;;;;;;4176841;28;20047;-66
2023/07/15 08:56:12;;;;;;;2.90;1.55;;;27.30;98.30;;;;;;4177512;28;20082;-61
2023/07/15 08:58:13;;;;;;;3.20;1.58;;;27.30;98.20;;;;;;4177513;28;20025;-61
2023/07/15 09:00:15;;;;;;;2.05;1.33;;;27.50;98.00;;;;;;4178041;28;20103;-63
2023/07/15 09:02:16;;;;;;;2.80;1.40;;;27.50;97.80;;;;;;4176328;28;20048;-63
2023/07/15 09:04:17;;;;;;;1.67;1.45;;;27.50;97.60;;;;;;4178819;28;20082;-61
2023/07/15 09:06:18;;;;;;;3.38;1.63;;;27.40;97.40;;;;;;4176969;28;20427;-62
2023/07/15 09:08:19;;;;;;;2.05;1.42;;;27.50;97.40;;;;;;4178410;28;20087;-63
2023/07/15 09:10:21;;;;;;;2.40;1.52;;;27.70;97.10;;;;;;4177361;28;20094;-61
2023/07/15 09:12:24;;;;;;;3.92;1.60;;;27.70;96.60;;;;;;4178088;28;20147;-61
2023/07/15 09:14:25;;;;;;;1.77;1.65;;;27.70;96.60;;;;;;4177836;28;20025;-61
2023/07/15 09:16:30;;;;;;;1.70;1.60;;;27.80;97.00;;;;;;4177491;28;20032;-62
2023/07/15 09:18:37;;;;;;;2.05;1.27;;;27.80;96.90;;;;;;4176922;28;20079;-61
2023/07/15 09:20:38;;;;;;;1.45;1.30;;;27.80;97.00;;;;;;4177413;28;20435;-62
2023/07/15 09:22:39;;;;;;;2.22;1.40;;;28.00;97.10;;;;;;4177012;28;20029;-62
2023/07/15 09:24:41;;;;;;;3.70;1.20;;;28.00;96.90;;;;;;4177133;28;20403;-62
2023/07/15 09:26:47;;;;;;;2.70;1.48;;;28.00;96.80;;;;;;4177938;28;20126;-60
2023/07/15 09:28:48;;;;;;;1.70;1.38;;;28.00;96.70;;;;;;4176117;28;20485;-61
2023/07/15 09:30:49;;;;;;;5.25;1.88;;;28.30;96.80;;;;;;4178154;28;20435;-61
2023/07/15 09:32:51;;;;;;;2.17;1.38;;;28.30;96.70;;;;;;4176343;28;20102;-61
2023/07/15 09:34:52;;;;;;;1.30;1.20;;;28.10;96.50;;;;;;4177973;28;20045;-60
2023/07/15 09:36:54;;;;;;;1.90;1.67;;;28.10;96.70;;;;;;4158910;28;20034;-61
2023/07/15 09:38:55;;;;;;;1.63;1.35;;;28.20;96.70;;;;;;4159465;28;20026;-61
2023/07/15 09:40:57;;;;;;;3.38;1.40;;;28.10;96.70;;;;;;4176277;28;20166;-62
2023/07/15 09:42:58;;;;;;;2.25;1.55;;;28.00;96.70;;;;;;4177977;28;20082;-61
2023/07/15 09:44:59;;;;;;;1.50;1.40;;;27.80;96.70;;;;;;4176595;28;20865;-61
2023/07/15 09:47:03;;;;;;;3.58;1.70;;;27.70;96.60;;;;;;4177201;28;20094;-61
2023/07/15 09:49:04;;;;;;;2.65;1.13;;;27.60;96.20;;;;;;4177204;28;20031;-62
2023/07/15 09:51:05;;;;;;;3.10;1.83;;;27.70;95.70;;;;;;4176792;28;20036;-61
2023/07/15 09:53:07;;;;;;;2.03;1.15;;;27.70;95.80;;;;;;4176592;28;20071;-60
2023/07/15 09:55:08;;;;;;;2.35;1.27;;;27.80;96.00;;;;;;4176718;28;20099;-62
2023/07/15 09:57:14;;;;;;;1.92;1.45;;;28.00;96.00;;;;;;4176727;28;20087;-64
2023/07/15 09:59:22;;;;;;;5.05;1.30;;;28.00;95.30;;;;;;4175608;28;20032;-61
2023/07/15 10:01:31;;;;;;;3.47;1.80;;;28.00;95.20;;;;;;4176640;28;20037;-61
2023/07/15 10:03:43;;;;;;;2.42;1.15;;;28.10;95.00;;;;;;4176967;28;20470;-60
2023/07/15 10:05:47;;;;;;;3.70;1.40;;;28.20;94.30;;;;;;4177674;28;20036;-62
2023/07/15 10:07:50;;;;;;;4.55;1.20;;;28.10;94.00;;;;;;4175659;28;20049;-64
2023/07/15 10:09:52;;;;;;;1.77;1.25;;;28.00;94.30;;;;;;4175692;28;20091;-61
2023/07/15 10:11:54;;;;;;;1.80;0.95;;;28.10;94.30;;;;;;4191536;28;20021;-61
2023/07/15 10:13:56;;;;;;;1.27;0.98;;;28.10;92.90;;;;;;4177578;28;20025;-61
2023/07/15 10:15:58;;;;;;;3.95;2.08;;;27.90;91.90;;;;;;4176556;28;20427;-60
2023/07/15 10:18:16;;;;;;;2.15;1.40;;;28.00;92.40;;;;;;4177529;28;20025;-61
2023/07/15 10:20:17;;;;;;;2.75;1.13;;;28.10;93.40;;;;;;4174975;28;20017;-60
2023/07/15 10:22:21;;;;;;;1.63;1.08;;;28.10;93.50;;;;;;4177528;28;20477;-61
2023/07/15 10:24:25;;;;;;;2.55;1.63;;;28.20;93.50;;;;;;4175749;28;20036;-61
2023/07/15 10:26:26;;;;;;;4.82;1.55;;;28.10;93.40;;;;;;4175919;28;20052;-62
2023/07/15 10:28:39;;;;;;;3.67;1.83;;;28.20;93.50;;;;;;4175735;28;20049;-62
2023/07/15 10:31:20;;;;;;;2.03;1.40;;;28.20;93.70;;;;;;4174993;28;20442;-60
2023/07/15 10:33:24;;;;;;;1.83;1.33;;;28.20;93.20;;;;;;4173623;28;20099;-61